Time;durP1;ratioP1;P1;durP2;ratioP2;P2;SDS_P1;SDS_P2;PMS_P1;PMS_P2;Temp;Humidity;BMP_temperature;BMP_pressure;BME280_temperature;BME280_humidity;BME280_pressure;Samples;Min_cycle;Max_cycle;Signal;HPM_P1;HPM_P2
2023/03/19 00:01:53;;;;;;;;;;;10.60;82.20;;;;;;5038713;28;20013;-79
2023/03/19 00:04:18;;;;;;;;;;;10.70;81.80;;;;;;5041302;28;19918;-79
2023/03/19 00:06:44;;;;;;;;;;;10.80;81.30;;;;;;5060511;28;19928;-80
2023/03/19 00:09:10;;;;;;;;;;;10.90;80.40;;;;;;5070557;28;19927;-79
2023/03/19 00:11:35;;;;;;;;;;;10.90;79.70;;;;;;5037103;28;19916;-79
2023/03/19 00:14:01;;;;;;;;;;;11.00;79.60;;;;;;5054557;28;19963;-78
2023/03/19 00:16:26;;;;;;;;;;;11.10;80.00;;;;;;5055701;28;19909;-79
2023/03/19 00:18:52;;;;;;;;;;;11.10;80.10;;;;;;5038426;28;20376;-79
2023/03/19 00:21:18;;;;;;;;;;;11.10;80.70;;;;;;5040477;28;19958;-79
2023/03/19 00:23:43;;;;;;;;;;;11.20;81.00;;;;;;5037444;28;20372;-79
2023/03/19 00:26:09;;;;;;;;;;;11.10;81.50;;;;;;5055867;28;19909;-79
2023/03/19 00:28:36;;;;;;;;;;;11.10;80.90;;;;;;5060486;28;19923;-79
2023/03/19 00:31:12;;;;;;;;;;;11.10;81.10;;;;;;5069953;28;19909;-79
2023/03/19 00:33:37;;;;;;;;;;;11.10;81.40;;;;;;5069774;28;19944;-79
2023/03/19 00:36:04;;;;;;;;;;;11.00;81.90;;;;;;5078821;28;20109;-79
2023/03/19 00:38:45;;;;;;;;;;;11.00;81.70;;;;;;5069985;22;19924;-83
2023/03/19 00:41:21;;;;;;;;;;;10.90;81.90;;;;;;5053395;28;19913;-83
2023/03/19 00:43:46;;;;;;;;;;;10.80;81.90;;;;;;5050207;28;20008;-84
2023/03/19 00:46:14;;;;;;;;;;;10.80;82.10;;;;;;5053657;28;20042;-84
2023/03/19 00:48:43;;;;;;;;;;;10.70;82.30;;;;;;5043890;28;19991;-83
2023/03/19 00:51:09;;;;;;;;;;;10.80;82.90;;;;;;5067410;28;19909;-83
2023/03/19 00:53:39;;;;;;;;;;;10.80;83.50;;;;;;5074204;28;19965;-83
2023/03/19 00:56:21;;;;;;;;;;;10.80;83.50;;;;;;5051404;28;19908;-83
2023/03/19 00:58:49;;;;;;;;;;;10.80;83.60;;;;;;5041676;28;20342;-83
2023/03/19 01:01:15;;;;;;;;;;;10.90;83.60;;;;;;5056219;28;19917;-83
2023/03/19 01:03:41;;;;;;;;;;;11.00;82.80;;;;;;5044376;28;19913;-83
2023/03/19 01:06:13;;;;;;;;;;;11.00;82.60;;;;;;5084506;28;19908;-83
2023/03/19 01:08:39;;;;;;;;;;;11.10;82.50;;;;;;5062552;28;19920;-83
2023/03/19 01:11:13;;;;;;;;;;;11.10;82.30;;;;;;5061519;28;19955;-83
2023/03/19 01:13:38;;;;;;;;;;;11.10;81.80;;;;;;5075221;28;19920;-83
2023/03/19 01:16:11;;;;;;;;;;;11.10;81.90;;;;;;5079581;28;20298;-83
2023/03/19 01:18:40;;;;;;;;;;;11.10;82.00;;;;;;5060241;28;20289;-83
2023/03/19 01:21:34;;;;;;;;;;;11.00;81.60;;;;;;5090720;28;19964;-84
2023/03/19 01:24:06;;;;;;;;;;;11.00;81.80;;;;;;5058589;28;19916;-84
2023/03/19 01:26:31;;;;;;;;;;;10.90;81.60;;;;;;5073483;28;19913;-83
2023/03/19 01:29:10;;;;;;;;;;;10.80;82.10;;;;;;5078813;28;20034;-83
2023/03/19 01:31:36;;;;;;;;;;;10.70;82.50;;;;;;5052197;28;20024;-83
2023/03/19 01:34:01;;;;;;;;;;;10.60;82.90;;;;;;5078376;28;19924;-83
2023/03/19 01:36:28;;;;;;;;;;;10.50;83.40;;;;;;5060477;28;20274;-83
2023/03/19 01:38:53;;;;;;;;;;;10.50;83.50;;;;;;5074788;28;20050;-83
2023/03/19 01:41:19;;;;;;;;;;;10.60;83.50;;;;;;5060257;28;19952;-83
2023/03/19 01:43:45;;;;;;;;;;;10.50;83.60;;;;;;5057545;28;19919;-83
2023/03/19 01:46:21;;;;;;;;;;;10.50;83.50;;;;;;5057307;28;20289;-83
2023/03/19 01:48:46;;;;;;;;;;;10.50;83.70;;;;;;5049719;28;19924;-83
2023/03/19 01:51:14;;;;;;;;;;;10.50;84.20;;;;;;5058854;28;19912;-83
2023/03/19 01:53:42;;;;;;;;;;;10.40;83.90;;;;;;5044428;28;19912;-83
2023/03/19 01:56:11;;;;;;;;;;;10.30;84.20;;;;;;5044642;28;20275;-83
2023/03/19 01:58:37;;;;;;;;;;;10.20;84.20;;;;;;5068582;28;19938;-83
2023/03/19 02:01:03;;;;;;;;;;;10.10;84.30;;;;;;5047463;28;19927;-83
2023/03/19 02:03:29;;;;;;;;;;;10.10;84.40;;;;;;5052598;28;19916;-83
2023/03/19 02:05:55;;;;;;;;;;;10.10;84.50;;;;;;5076262;28;20151;-83
2023/03/19 02:08:21;;;;;;;;;;;10.00;84.50;;;;;;5075748;28;19917;-83
2023/03/19 02:10:47;;;;;;;;;;;10.00;84.50;;;;;;5068444;28;19913;-84
2023/03/19 02:13:13;;;;;;;;;;;10.00;84.60;;;;;;5073302;28;19912;-84
2023/03/19 02:15:39;;;;;;;;;;;10.00;84.60;;;;;;5052937;28;19919;-83
2023/03/19 02:18:05;;;;;;;;;;;10.00;84.60;;;;;;5044963;28;20271;-83
2023/03/19 02:20:40;;;;;;;;;;;10.00;84.50;;;;;;5064038;28;19952;-83
2023/03/19 02:23:29;;;;;;;;;;;10.00;84.90;;;;;;5057180;28;19918;-83
2023/03/19 02:26:05;;;;;;;;;;;9.90;84.90;;;;;;5056431;28;20346;-83
2023/03/19 02:34:39;;;;;;;;;;;9.80;85.00;;;;;;5083246;28;19908;-83
2023/03/19 02:37:11;;;;;;;;;;;9.70;84.80;;;;;;5071148;28;19934;-83
2023/03/19 02:39:41;;;;;;;;;;;9.70;85.00;;;;;;5083002;28;20317;-83
2023/03/19 02:42:08;;;;;;;;;;;9.60;85.20;;;;;;5080812;28;19909;-83
2023/03/19 02:44:33;;;;;;;;;;;9.60;84.90;;;;;;5061535;28;19913;-83
2023/03/19 02:46:59;;;;;;;;;;;9.60;85.00;;;;;;5078840;28;19915;-83
2023/03/19 02:49:24;;;;;;;;;;;9.60;85.10;;;;;;5076317;28;19931;-83
2023/03/19 02:51:50;;;;;;;;;;;9.60;85.10;;;;;;5072332;28;19913;-83
2023/03/19 02:54:15;;;;;;;;;;;9.60;85.30;;;;;;5061027;28;19962;-83
2023/03/19 02:56:41;;;;;;;;;;;9.60;85.10;;;;;;5052643;28;19909;-83
2023/03/19 02:59:06;;;;;;;;;;;9.60;85.10;;;;;;5077987;28;19920;-83
2023/03/19 03:01:32;;;;;;;;;;;9.60;84.80;;;;;;5061376;28;20411;-83
2023/03/19 03:03:57;;;;;;;;;;;9.70;84.70;;;;;;5060384;28;19928;-83
2023/03/19 03:06:23;;;;;;;;;;;9.80;84.50;;;;;;5061783;28;19909;-83
2023/03/19 03:08:48;;;;;;;;;;;9.80;84.50;;;;;;5062031;28;19923;-83
2023/03/19 03:11:14;;;;;;;;;;;9.90;84.20;;;;;;5060738;28;19935;-83
2023/03/19 03:13:39;;;;;;;;;;;10.00;83.90;;;;;;5072719;28;19920;-83
2023/03/19 03:16:05;;;;;;;;;;;10.10;83.20;;;;;;5060943;28;19912;-83
2023/03/19 03:18:31;;;;;;;;;;;10.20;83.00;;;;;;5087386;28;19908;-84
2023/03/19 03:20:57;;;;;;;;;;;10.20;82.60;;;;;;5049940;28;19913;-83
2023/03/19 03:23:22;;;;;;;;;;;10.30;82.50;;;;;;5062549;28;19915;-83
2023/03/19 03:25:49;;;;;;;;;;;10.30;82.10;;;;;;5073557;28;19919;-83
2023/03/19 03:28:15;;;;;;;;;;;10.30;82.10;;;;;;5054611;28;19927;-83
2023/03/19 03:30:40;;;;;;;;;;;10.40;81.80;;;;;;5076598;28;19912;-83
2023/03/19 03:33:06;;;;;;;;;;;10.40;81.80;;;;;;5075808;28;19909;-83
2023/03/19 03:35:31;;;;;;;;;;;10.50;81.80;;;;;;5070694;28;19913;-83
2023/03/19 03:37:58;;;;;;;;;;;10.50;81.70;;;;;;5078856;28;19955;-83
2023/03/19 03:40:23;;;;;;;;;;;10.60;81.80;;;;;;5078051;28;19913;-83
2023/03/19 03:42:49;;;;;;;;;;;10.60;81.40;;;;;;5063795;28;20340;-83
2023/03/19 03:45:15;;;;;;;;;;;10.60;81.40;;;;;;5074707;28;19955;-83
2023/03/19 03:47:41;;;;;;;;;;;10.60;81.20;;;;;;5055698;28;19923;-83
2023/03/19 03:50:09;;;;;;;;;;;10.60;81.10;;;;;;5061696;28;20525;-83
2023/03/19 03:52:35;;;;;;;;;;;10.70;80.90;;;;;;5071133;28;19944;-83
2023/03/19 03:55:01;;;;;;;;;;;10.80;80.40;;;;;;5057087;28;19962;-83
2023/03/19 03:57:26;;;;;;;;;;;10.80;80.50;;;;;;5083521;28;19972;-82
2023/03/19 03:59:52;;;;;;;;;;;10.80;80.80;;;;;;5080729;28;19925;-83
2023/03/19 04:02:18;;;;;;;;;;;10.80;80.80;;;;;;5060571;28;19959;-82
2023/03/19 04:04:43;;;;;;;;;;;10.80;80.70;;;;;;5086736;28;20277;-82
2023/03/19 04:07:09;;;;;;;;;;;10.80;80.40;;;;;;5063514;28;20030;-83
2023/03/19 04:09:34;;;;;;;;;;;10.90;80.50;;;;;;5062061;28;19920;-83
2023/03/19 04:12:01;;;;;;;;;;;10.90;80.60;;;;;;5055234;28;20019;-83
2023/03/19 04:14:26;;;;;;;;;;;10.90;80.90;;;;;;5057065;28;19967;-83
2023/03/19 04:16:52;;;;;;;;;;;10.90;80.80;;;;;;5053224;28;19917;-83
2023/03/19 04:19:18;;;;;;;;;;;10.90;80.60;;;;;;5075322;28;19924;-83
2023/03/19 04:21:43;;;;;;;;;;;10.90;80.70;;;;;;5058737;28;20284;-84
2023/03/19 04:24:09;;;;;;;;;;;11.00;80.30;;;;;;5059055;28;19919;-83
2023/03/19 04:26:35;;;;;;;;;;;11.00;80.30;;;;;;5049942;28;19916;-83
2023/03/19 04:29:00;;;;;;;;;;;11.00;80.40;;;;;;5074905;28;19917;-83
2023/03/19 04:31:26;;;;;;;;;;;11.00;80.60;;;;;;5052202;28;19934;-83
2023/03/19 04:33:52;;;;;;;;;;;11.00;80.30;;;;;;5053910;28;19912;-83
2023/03/19 04:36:17;;;;;;;;;;;11.00;80.40;;;;;;5049436;28;19913;-83
2023/03/19 04:38:43;;;;;;;;;;;11.00;80.50;;;;;;5057543;28;20057;-83
2023/03/19 04:41:09;;;;;;;;;;;11.00;80.40;;;;;;5055686;28;20400;-83
2023/03/19 04:43:35;;;;;;;;;;;11.00;80.40;;;;;;5058420;28;19916;-83
2023/03/19 04:46:01;;;;;;;;;;;10.90;80.70;;;;;;5076394;28;20282;-83
2023/03/19 04:48:27;;;;;;;;;;;10.90;80.80;;;;;;5051798;28;19912;-83
2023/03/19 04:50:55;;;;;;;;;;;10.90;80.90;;;;;;5074313;28;19916;-83
2023/03/19 04:53:21;;;;;;;;;;;10.90;80.80;;;;;;5073589;28;19916;-83
2023/03/19 04:55:46;;;;;;;;;;;10.90;81.00;;;;;;5072397;28;19920;-83
2023/03/19 04:58:12;;;;;;;;;;;10.90;80.80;;;;;;5072262;28;19919;-82
2023/03/19 05:00:38;;;;;;;;;;;10.80;81.00;;;;;;5063245;28;19913;-83
2023/03/19 05:03:03;;;;;;;;;;;10.80;81.20;;;;;;5071159;28;19912;-83
2023/03/19 05:05:28;;;;;;;;;;;10.90;81.10;;;;;;5057106;28;20009;-82
2023/03/19 05:07:56;;;;;;;;;;;10.80;81.10;;;;;;5071928;28;19924;-83
2023/03/19 05:10:21;;;;;;;;;;;10.90;80.90;;;;;;5071452;28;20012;-82
2023/03/19 05:12:47;;;;;;;;;;;10.90;80.60;;;;;;5070719;28;19943;-83
2023/03/19 05:15:13;;;;;;;;;;;11.00;80.70;;;;;;5061422;28;19954;-83
2023/03/19 05:17:38;;;;;;;;;;;10.90;80.70;;;;;;5056824;28;19909;-83
2023/03/19 05:20:04;;;;;;;;;;;10.90;80.70;;;;;;5074954;28;19917;-83
2023/03/19 05:22:29;;;;;;;;;;;10.90;80.80;;;;;;5076605;28;20409;-83
2023/03/19 05:24:55;;;;;;;;;;;10.90;81.00;;;;;;5070620;28;19923;-83
2023/03/19 05:27:20;;;;;;;;;;;10.80;81.10;;;;;;5078595;28;19959;-83
2023/03/19 05:29:47;;;;;;;;;;;10.80;81.30;;;;;;5072827;28;20046;-83
2023/03/19 05:32:12;;;;;;;;;;;10.80;81.50;;;;;;5059800;28;19916;-83
2023/03/19 05:34:38;;;;;;;;;;;10.70;81.50;;;;;;5076403;28;19921;-83
2023/03/19 05:37:03;;;;;;;;;;;10.70;81.40;;;;;;5058861;28;19918;-83
2023/03/19 05:39:29;;;;;;;;;;;10.70;81.60;;;;;;5057126;28;19916;-83
2023/03/19 05:41:54;;;;;;;;;;;10.70;81.70;;;;;;5057388;28;19923;-83
2023/03/19 05:44:20;;;;;;;;;;;10.60;81.80;;;;;;5064793;28;19912;-83
2023/03/19 05:46:46;;;;;;;;;;;10.60;81.80;;;;;;5069895;28;19970;-83
2023/03/19 05:49:11;;;;;;;;;;;10.50;82.30;;;;;;5054184;28;20387;-83
2023/03/19 05:51:37;;;;;;;;;;;10.50;82.30;;;;;;5054597;28;20008;-83
2023/03/19 05:54:02;;;;;;;;;;;10.60;82.40;;;;;;5049929;28;20432;-83
2023/03/19 05:56:28;;;;;;;;;;;10.50;82.60;;;;;;5056126;28;20785;-82
2023/03/19 05:58:54;;;;;;;;;;;10.60;82.80;;;;;;5052060;28;19917;-83
2023/03/19 06:01:19;;;;;;;;;;;10.60;82.80;;;;;;5061516;28;20395;-83
2023/03/19 06:03:45;;;;;;;;;;;10.70;82.80;;;;;;5071866;28;19913;-82
2023/03/19 06:06:11;;;;;;;;;;;10.80;82.80;;;;;;5048166;28;19912;-82
2023/03/19 06:08:36;;;;;;;;;;;10.80;82.70;;;;;;5065426;28;20362;-83
2023/03/19 06:11:02;;;;;;;;;;;10.80;82.80;;;;;;5050127;28;20000;-83
2023/03/19 06:13:27;;;;;;;;;;;10.90;82.90;;;;;;5045788;28;19920;-83
2023/03/19 06:15:53;;;;;;;;;;;11.00;83.00;;;;;;5072158;28;20015;-83
2023/03/19 06:18:18;;;;;;;;;;;10.90;83.30;;;;;;5080748;28;19912;-83
2023/03/19 06:20:45;;;;;;;;;;;11.00;83.40;;;;;;5053322;28;19913;-83
2023/03/19 06:23:10;;;;;;;;;;;11.00;83.20;;;;;;5057029;28;19908;-83
2023/03/19 06:25:36;;;;;;;;;;;11.10;83.20;;;;;;5060747;28;19920;-83
2023/03/19 06:28:01;;;;;;;;;;;11.10;82.80;;;;;;5060281;28;20290;-82
2023/03/19 06:30:27;;;;;;;;;;;11.10;82.70;;;;;;5053351;28;19923;-83
2023/03/19 06:32:52;;;;;;;;;;;11.10;82.80;;;;;;5077068;28;19927;-83
2023/03/19 06:35:18;;;;;;;;;;;11.10;83.10;;;;;;5058023;28;19958;-83
2023/03/19 06:37:43;;;;;;;;;;;11.10;83.40;;;;;;5122147;22;19935;-88
2023/03/19 06:40:09;;;;;;;;;;;11.10;83.70;;;;;;5101223;28;20010;-87
2023/03/19 06:42:35;;;;;;;;;;;11.10;84.10;;;;;;5103916;28;19912;-87
2023/03/19 06:45:03;;;;;;;;;;;11.10;84.30;;;;;;5099770;28;19916;-87
2023/03/19 06:47:29;;;;;;;;;;;11.10;84.60;;;;;;5106939;28;20053;-88
2023/03/19 06:49:55;;;;;;;;;;;11.10;85.00;;;;;;5093162;28;19951;-87
2023/03/19 06:52:21;;;;;;;;;;;11.10;85.10;;;;;;5085191;28;20012;-87
2023/03/19 06:54:46;;;;;;;;;;;11.10;85.40;;;;;;5082390;28;20301;-88
2023/03/19 06:57:12;;;;;;;;;;;11.10;85.60;;;;;;5091340;28;19916;-87
2023/03/19 06:59:37;;;;;;;;;;;11.10;85.60;;;;;;5084200;28;19912;-88
2023/03/19 07:02:03;;;;;;;;;;;11.10;85.80;;;;;;5103376;28;19901;-89
2023/03/19 07:04:29;;;;;;;;;;;11.20;85.50;;;;;;5118687;28;20015;-89
2023/03/19 07:06:54;;;;;;;;;;;11.20;85.70;;;;;;5097016;28;19963;-89
2023/03/19 07:09:20;;;;;;;;;;;11.20;85.90;;;;;;5109538;28;19924;-88
2023/03/19 07:11:45;;;;;;;;;;;11.20;86.20;;;;;;5094062;28;19915;-87
2023/03/19 07:14:11;;;;;;;;;;;11.20;86.60;;;;;;5085684;28;20125;-87
2023/03/19 07:16:36;;;;;;;;;;;11.30;86.80;;;;;;5088505;28;20270;-88
2023/03/19 07:19:02;;;;;;;;;;;11.30;86.80;;;;;;5077705;28;19920;-87
2023/03/19 07:21:28;;;;;;;;;;;11.40;86.90;;;;;;5095545;28;19955;-88
2023/03/19 07:23:53;;;;;;;;;;;11.40;87.20;;;;;;5090011;28;19995;-89
2023/03/19 07:26:19;;;;;;;;;;;11.50;86.50;;;;;;5090155;28;19924;-88
2023/03/19 07:28:44;;;;;;;;;;;11.60;86.40;;;;;;5089054;28;20404;-89
2023/03/19 07:31:10;;;;;;;;;;;11.60;86.40;;;;;;5092889;28;19952;-88
2023/03/19 07:33:35;;;;;;;;;;;11.70;86.00;;;;;;5083947;28;20334;-88
2023/03/19 07:36:01;;;;;;;;;;;11.80;84.90;;;;;;5085432;28;19926;-89
2023/03/19 07:38:26;;;;;;;;;;;11.70;85.00;;;;;;5083894;28;19931;-88
2023/03/19 07:40:52;;;;;;;;;;;11.70;85.10;;;;;;5080732;28;20006;-88
2023/03/19 07:43:17;;;;;;;;;;;11.80;84.80;;;;;;5092685;28;19912;-88
2023/03/19 07:45:43;;;;;;;;;;;11.90;84.70;;;;;;5093469;28;20341;-88
2023/03/19 07:48:08;;;;;;;;;;;12.10;84.00;;;;;;5091670;28;19939;-89
2023/03/19 07:50:34;;;;;;;;;;;12.10;83.20;;;;;;5093806;28;19912;-88
2023/03/19 07:53:00;;;;;;;;;;;12.00;83.00;;;;;;5093072;28;20395;-88
2023/03/19 07:55:25;;;;;;;;;;;12.10;83.20;;;;;;5083976;28;19946;-88
2023/03/19 07:57:51;;;;;;;;;;;12.00;83.20;;;;;;5086147;28;19912;-87
2023/03/19 08:00:16;;;;;;;;;;;12.00;83.20;;;;;;5075320;28;19913;-87
2023/03/19 08:02:42;;;;;;;;;;;12.00;83.10;;;;;;5081963;28;19922;-87
2023/03/19 08:05:08;;;;;;;;;;;12.00;84.00;;;;;;5092125;28;19927;-88
2023/03/19 08:07:34;;;;;;;;;;;11.90;84.10;;;;;;5088517;28;19942;-86
2023/03/19 08:10:00;;;;;;;;;;;11.80;84.90;;;;;;5086655;28;19939;-87
2023/03/19 08:12:26;;;;;;;;;;;11.70;85.50;;;;;;5074675;28;19962;-88
2023/03/19 08:14:51;;;;;;;;;;;11.70;85.60;;;;;;5092841;28;19919;-88
2023/03/19 08:17:17;;;;;;;;;;;11.70;85.60;;;;;;5106310;28;19916;-87
2023/03/19 08:19:42;;;;;;;;;;;11.80;85.60;;;;;;5090734;28;20385;-87
2023/03/19 08:22:09;;;;;;;;;;;11.80;85.70;;;;;;5087774;28;19965;-87
2023/03/19 08:24:35;;;;;;;;;;;12.00;85.90;;;;;;5082802;28;19916;-87
2023/03/19 08:27:00;;;;;;;;;;;12.10;86.10;;;;;;5089910;28;19961;-86
2023/03/19 08:29:26;;;;;;;;;;;12.10;86.00;;;;;;5089726;28;20304;-87
2023/03/19 08:31:55;;;;;;;;;;;12.20;85.90;;;;;;5086659;28;19957;-90
2023/03/19 08:34:30;;;;;;;;;;;12.30;85.40;;;;;;5105253;28;19925;-92
2023/03/19 08:36:55;;;;;;;;;;;12.40;84.90;;;;;;5085648;28;19912;-93
2023/03/19 08:39:21;;;;;;;;;;;12.40;84.50;;;;;;5088436;28;19924;-90
2023/03/19 08:41:47;;;;;;;;;;;12.40;84.30;;;;;;5099104;28;19919;-90
2023/03/19 08:44:12;;;;;;;;;;;12.30;84.50;;;;;;5083294;28;19916;-87
2023/03/19 08:46:43;;;;;;;;;;;12.30;84.40;;;;;;5082125;28;19920;-91
2023/03/19 08:49:09;;;;;;;;;;;12.30;84.80;;;;;;5089766;28;20323;-89
2023/03/19 08:51:44;;;;;;;;;;;12.30;84.80;;;;;;5084578;28;19918;-90
2023/03/19 08:54:10;;;;;;;;;;;12.30;84.90;;;;;;5086671;28;19912;-86
2023/03/19 08:56:37;;;;;;;;;;;12.30;84.60;;;;;;5090614;28;19920;-89
2023/03/19 08:59:02;;;;;;;;;;;12.30;84.60;;;;;;5093360;28;19978;-89
2023/03/19 09:01:28;;;;;;;;;;;12.30;85.10;;;;;;5090119;28;19955;-89
2023/03/19 09:03:53;;;;;;;;;;;12.30;84.60;;;;;;5095406;28;19912;-89
2023/03/19 09:06:19;;;;;;;;;;;12.30;84.20;;;;;;5087684;28;19955;-89
2023/03/19 09:08:45;;;;;;;;;;;12.20;84.40;;;;;;5087116;28;19916;-87
2023/03/19 09:11:10;;;;;;;;;;;12.30;84.40;;;;;;5075177;28;19924;-90
2023/03/19 09:13:36;;;;;;;;;;;12.30;84.40;;;;;;5085000;28;19951;-91
2023/03/19 09:16:01;;;;;;;;;;;12.30;84.10;;;;;;5092858;28;19913;-91
2023/03/19 09:18:27;;;;;;;;;;;12.30;84.10;;;;;;5087280;28;19913;-89
2023/03/19 09:20:53;;;;;;;;;;;12.40;84.00;;;;;;5084875;28;19936;-92
2023/03/19 09:23:18;;;;;;;;;;;12.50;83.50;;;;;;5090528;28;19912;-89
2023/03/19 09:25:45;;;;;;;;;;;12.50;83.50;;;;;;5077913;28;20301;-91
2023/03/19 09:28:11;;;;;;;;;;;12.60;82.90;;;;;;5088277;28;19916;-90
2023/03/19 09:30:37;;;;;;;;;;;12.60;81.60;;;;;;5091650;28;19965;-90
2023/03/19 09:33:03;;;;;;;;;;;12.60;82.40;;;;;;5080670;28;20065;-89
2023/03/19 09:35:30;;;;;;;;;;;12.70;81.20;;;;;;5084686;28;20419;-88
2023/03/19 09:37:59;;;;;;;;;;;12.70;80.90;;;;;;5093029;28;19916;-90
2023/03/19 09:40:27;;;;;;;;;;;12.70;80.60;;;;;;5086182;28;19908;-89
2023/03/19 09:42:59;;;;;;;;;;;12.80;80.90;;;;;;5091817;28;19966;-89
2023/03/19 09:45:28;;;;;;;;;;;12.80;81.50;;;;;;5086864;28;19924;-91
2023/03/19 09:47:57;;;;;;;;;;;12.90;80.70;;;;;;5085510;28;19916;-91
2023/03/19 09:50:25;;;;;;;;;;;12.80;80.50;;;;;;5089628;28;19912;-91
2023/03/19 09:53:13;;;;;;;;;;;12.80;80.60;;;;;;5083605;28;20373;-91
2023/03/19 09:55:46;;;;;;;;;;;12.80;80.10;;;;;;5085759;28;19999;-91
2023/03/19 09:58:23;;;;;;;;;;;13.00;80.20;;;;;;5088014;28;19912;-91
2023/03/19 10:00:49;;;;;;;;;;;13.00;79.80;;;;;;5095518;28;19938;-91
2023/03/19 10:03:30;;;;;;;;;;;13.20;80.00;;;;;;5086710;28;19936;-92
2023/03/19 10:06:15;;;;;;;;;;;13.20;79.60;;;;;;5082075;28;19912;-92
2023/03/19 10:08:55;;;;;;;;;;;13.30;79.60;;;;;;5084218;28;19927;-92
2023/03/19 10:11:33;;;;;;;;;;;13.60;78.80;;;;;;5100259;28;19939;-91
2023/03/19 10:14:34;;;;;;;;;;;13.70;78.60;;;;;;5100058;28;19912;-93
2023/03/19 10:17:01;;;;;;;;;;;13.80;78.40;;;;;;5058517;28;19920;-92
2023/03/19 10:19:35;;;;;;;;;;;13.90;77.50;;;;;;5081005;28;19912;-89
2023/03/19 10:22:07;;;;;;;;;;;13.90;77.60;;;;;;5084453;28;19912;-92
2023/03/19 10:24:43;;;;;;;;;;;14.10;77.20;;;;;;5089868;28;19930;-91
2023/03/19 10:27:28;;;;;;;;;;;14.10;77.10;;;;;;5104941;28;20304;-90
2023/03/19 10:29:54;;;;;;;;;;;14.10;77.40;;;;;;5095709;28;19920;-90
2023/03/19 10:32:27;;;;;;;;;;;14.20;76.50;;;;;;5083357;28;19970;-95
2023/03/19 10:34:55;;;;;;;;;;;14.40;75.70;;;;;;5093133;28;19982;-94
2023/03/19 10:37:25;;;;;;;;;;;14.50;76.10;;;;;;5107317;28;19947;-96
2023/03/19 10:39:52;;;;;;;;;;;14.40;76.40;;;;;;5105728;28;19920;-95
2023/03/19 10:42:40;;;;;;;;;;;14.30;75.90;;;;;;5096266;28;19995;-92
2023/03/19 10:45:09;;;;;;;;;;;14.40;76.80;;;;;;5087725;28;19943;-92
2023/03/19 10:47:44;;;;;;;;;;;14.30;75.80;;;;;;5087422;28;19958;-92
2023/03/19 10:50:17;;;;;;;;;;;14.30;75.80;;;;;;5091201;28;19926;-92
2023/03/19 10:52:45;;;;;;;;;;;14.40;75.30;;;;;;5089510;28;19912;-90
2023/03/19 10:55:18;;;;;;;;;;;14.40;75.80;;;;;;5082435;28;20414;-88
2023/03/19 10:57:47;;;;;;;;;;;14.50;75.90;;;;;;5087632;28;19940;-88
2023/03/19 11:00:23;;;;;;;;;;;14.30;75.90;;;;;;5087394;28;19934;-89
2023/03/19 11:02:53;;;;;;;;;;;14.10;76.30;;;;;;5100109;28;19959;-90
2023/03/19 11:05:24;;;;;;;;;;;14.00;76.70;;;;;;5116647;28;19912;-87
2023/03/19 11:11:41;;;;;;;;;;;14.00;76.60;;;;;;5054341;28;19941;-92
2023/03/19 11:14:30;;;;;;;;;;;14.00;76.40;;;;;;5040633;28;20438;-90
2023/03/19 11:16:57;;;;;;;;;;;14.00;76.10;;;;;;5041859;28;19913;-93
2023/03/19 11:19:30;;;;;;;;;;;14.00;76.70;;;;;;5041735;28;20259;-89
2023/03/19 11:22:16;;;;;;;;;;;14.10;76.10;;;;;;5054945;28;20316;-91
2023/03/19 11:24:50;;;;;;;;;;;14.30;75.70;;;;;;5093766;28;19919;-88
2023/03/19 11:27:15;;;;;;;;;;;14.30;74.50;;;;;;5090796;28;20025;-89
2023/03/19 11:29:43;;;;;;;;;;;14.50;73.70;;;;;;5086412;28;20106;-88
2023/03/19 11:32:08;;;;;;;;;;;14.50;73.70;;;;;;5090338;28;19924;-90
2023/03/19 11:37:48;;;;;;;;;;;14.50;74.00;;;;;;5080215;28;19912;-91
2023/03/19 11:40:53;;;;;;;;;;;14.50;73.80;;;;;;5091447;28;19922;-92
2023/03/19 11:43:45;;;;;;;;;;;14.70;73.90;;;;;;5089337;28;20350;-90
2023/03/19 11:46:11;;;;;;;;;;;14.80;72.20;;;;;;5087465;28;19928;-87
2023/03/19 11:48:37;;;;;;;;;;;14.80;73.60;;;;;;5087913;22;19983;-80
2023/03/19 11:51:17;;;;;;;;;;;14.80;72.60;;;;;;5081441;28;20049;-80
2023/03/19 11:53:42;;;;;;;;;;;14.80;72.30;;;;;;5066178;28;19920;-82
2023/03/19 11:56:11;;;;;;;;;;;14.90;71.70;;;;;;5089096;28;19912;-82
2023/03/19 11:58:42;;;;;;;;;;;14.90;71.70;;;;;;5070452;28;19919;-80
2023/03/19 12:01:14;;;;;;;;;;;14.90;70.10;;;;;;5074034;28;20366;-80
2023/03/19 12:03:49;;;;;;;;;;;15.00;70.90;;;;;;5070891;28;19923;-80
2023/03/19 12:06:23;;;;;;;;;;;15.00;71.10;;;;;;5092164;28;19912;-80
2023/03/19 12:08:54;;;;;;;;;;;14.90;71.40;;;;;;5071255;28;19985;-81
2023/03/19 12:11:29;;;;;;;;;;;14.70;71.50;;;;;;5067636;28;19920;-83
2023/03/19 12:13:55;;;;;;;;;;;14.70;71.30;;;;;;5093223;28;19912;-85
2023/03/19 12:16:35;;;;;;;;;;;14.80;71.50;;;;;;5086050;28;20377;-83
2023/03/19 12:19:01;;;;;;;;;;;14.80;71.60;;;;;;5070869;28;20417;-83
2023/03/19 12:21:45;;;;;;;;;;;14.60;72.10;;;;;;5067469;28;19912;-82
2023/03/19 12:24:29;;;;;;;;;;;14.50;73.20;;;;;;5085398;28;20255;-84
2023/03/19 12:27:10;;;;;;;;;;;14.20;72.70;;;;;;5064404;28;20063;-80
2023/03/19 12:29:45;;;;;;;;;;;13.90;75.30;;;;;;5083262;28;20042;-84
2023/03/19 12:32:28;;;;;;;;;;;13.60;77.40;;;;;;5066581;28;19925;-78
2023/03/19 12:35:07;;;;;;;;;;;13.40;78.90;;;;;;5071878;28;20452;-83
2023/03/19 12:37:44;;;;;;;;;;;13.30;79.00;;;;;;5071404;28;19920;-79
2023/03/19 12:40:11;;;;;;;;;;;13.10;79.20;;;;;;5089775;28;20017;-79
2023/03/19 12:42:37;;;;;;;;;;;13.10;79.50;;;;;;5061841;28;19919;-78
2023/03/19 12:45:11;;;;;;;;;;;13.10;78.90;;;;;;5068876;28;19916;-78
2023/03/19 12:47:38;;;;;;;;;;;13.30;79.30;;;;;;5086018;28;19912;-78
2023/03/19 12:50:06;;;;;;;;;;;13.60;78.80;;;;;;5072843;28;19928;-79
2023/03/19 12:52:31;;;;;;;;;;;13.80;78.90;;;;;;5082048;28;19904;-79
2023/03/19 12:55:18;;;;;;;;;;;14.30;77.90;;;;;;5096332;28;19904;-80
2023/03/19 12:57:56;;;;;;;;;;;14.40;77.60;;;;;;5091420;28;19924;-80
2023/03/19 13:00:25;;;;;;;;;;;14.70;76.70;;;;;;5104545;28;19916;-80
2023/03/19 13:03:02;;;;;;;;;;;14.80;76.20;;;;;;5097856;28;19916;-78
2023/03/19 13:05:31;;;;;;;;;;;14.60;76.00;;;;;;5068168;28;19967;-80
2023/03/19 13:08:33;;;;;;;;;;;14.60;75.50;;;;;;5087649;28;19938;-79
2023/03/19 13:10:58;;;;;;;;;;;14.60;74.00;;;;;;5028980;28;20549;-79
2023/03/19 13:13:27;;;;;;;;;;;14.80;74.00;;;;;;5077068;28;19924;-79
2023/03/19 13:15:55;;;;;;;;;;;15.00;75.70;;;;;;5083177;28;19917;-78
2023/03/19 13:18:40;;;;;;;;;;;15.10;75.30;;;;;;5087642;28;19916;-78
2023/03/19 13:21:23;;;;;;;;;;;15.30;73.20;;;;;;5062011;28;20080;-78
2023/03/19 13:23:56;;;;;;;;;;;15.30;73.60;;;;;;5085829;28;19916;-79
2023/03/19 13:26:21;;;;;;;;;;;15.20;73.20;;;;;;5060740;28;20356;-82
2023/03/19 13:29:07;;;;;;;;;;;15.10;72.80;;;;;;5083620;28;19916;-81
2023/03/19 13:31:34;;;;;;;;;;;15.20;72.80;;;;;;5064805;28;19930;-83
2023/03/19 13:34:03;;;;;;;;;;;15.10;73.70;;;;;;5065241;28;19923;-82
2023/03/19 13:36:30;;;;;;;;;;;15.00;73.70;;;;;;5091949;28;19966;-81
2023/03/19 13:38:56;;;;;;;;;;;14.90;73.60;;;;;;5087948;28;19920;-81
2023/03/19 13:41:34;;;;;;;;;;;14.70;74.10;;;;;;5091959;28;20003;-83
2023/03/19 13:44:17;;;;;;;;;;;14.60;74.80;;;;;;5065146;28;19944;-79
2023/03/19 13:46:45;;;;;;;;;;;14.60;75.20;;;;;;5086420;28;19917;-82
2023/03/19 13:49:32;;;;;;;;;;;14.60;74.90;;;;;;5060435;28;20003;-82
2023/03/19 13:52:00;;;;;;;;;;;14.60;74.70;;;;;;5078930;28;19912;-83
2023/03/19 13:54:39;;;;;;;;;;;14.60;74.70;;;;;;5082801;28;19994;-84
2023/03/19 13:57:15;;;;;;;;;;;14.60;74.20;;;;;;5069451;28;19927;-81
2023/03/19 13:59:43;;;;;;;;;;;14.50;75.30;;;;;;5067632;28;20484;-83
2023/03/19 14:02:21;;;;;;;;;;;14.60;75.50;;;;;;5082814;28;19920;-84
2023/03/19 14:05:01;;;;;;;;;;;14.40;76.30;;;;;;5064930;28;19961;-80
2023/03/19 14:07:41;;;;;;;;;;;14.10;77.00;;;;;;5058182;28;19989;-80
2023/03/19 14:10:07;;;;;;;;;;;14.10;77.20;;;;;;5071129;28;19927;-81
2023/03/19 14:12:34;;;;;;;;;;;14.20;77.10;;;;;;5072667;28;20532;-82
2023/03/19 14:15:06;;;;;;;;;;;14.20;77.40;;;;;;5061458;28;19919;-83
2023/03/19 14:17:52;;;;;;;;;;;14.30;76.50;;;;;;5054337;28;20007;-80
2023/03/19 14:20:17;;;;;;;;;;;14.50;76.90;;;;;;5064182;28;19913;-82
2023/03/19 14:22:43;;;;;;;;;;;14.70;76.60;;;;;;5075139;28;19924;-83
2023/03/19 14:25:17;;;;;;;;;;;14.80;75.00;;;;;;5080474;28;20327;-85
2023/03/19 14:27:44;;;;;;;;;;;14.80;73.80;;;;;;5085441;28;19920;-84
2023/03/19 14:30:17;;;;;;;;;;;14.90;74.70;;;;;;5066468;28;20333;-85
2023/03/19 14:32:46;;;;;;;;;;;14.70;73.50;;;;;;5068635;28;20515;-85
2023/03/19 14:35:15;;;;;;;;;;;14.60;74.80;;;;;;5068244;28;19998;-80
2023/03/19 14:37:43;;;;;;;;;;;14.60;74.10;;;;;;5069556;28;19923;-80
2023/03/19 14:40:32;;;;;;;;;;;14.60;74.50;;;;;;5072923;28;19912;-79
2023/03/19 14:43:01;;;;;;;;;;;14.80;73.10;;;;;;5054582;28;19912;-79